createdAt,value
2019-02-19T00:00:06.767Z,8.40
2019-02-19T00:02:36.077Z,8.40
2019-02-19T00:05:05.545Z,8.40
2019-02-19T00:07:35.869Z,8.40
2019-02-19T00:10:05.603Z,8.40
2019-02-19T00:12:34.879Z,8.40
2019-02-19T00:15:08.444Z,8.40
2019-02-19T00:17:38.030Z,8.40
2019-02-19T00:20:08.309Z,8.40
2019-02-19T00:22:37.869Z,8.30
2019-02-19T00:25:07.465Z,8.30
2019-02-19T00:27:36.844Z,8.30
2019-02-19T00:30:09.187Z,8.30
2019-02-19T00:32:39.353Z,8.30
2019-02-19T00:35:09.824Z,8.20
2019-02-19T00:37:40.176Z,8.20
2019-02-19T00:40:09.723Z,8.20
2019-02-19T00:42:39.249Z,8.20
2019-02-19T00:45:16.452Z,8.20
2019-02-19T00:47:40.728Z,8.10
2019-02-19T00:50:10.972Z,8.10
2019-02-19T00:52:41.400Z,8.10
2019-02-19T00:55:10.866Z,8.10
2019-02-19T00:57:40.334Z,8.10
2019-02-19T01:00:11.976Z,8.10
2019-02-19T01:02:42.265Z,8.10
2019-02-19T01:05:11.724Z,8.00
2019-02-19T01:07:41.226Z,8.00
2019-02-19T01:10:10.392Z,8.00
2019-02-19T01:12:39.896Z,8.00
2019-02-19T01:15:11.386Z,8.00
2019-02-19T01:17:40.966Z,8.00
2019-02-19T01:20:10.407Z,8.00
2019-02-19T01:22:39.903Z,8.00
2019-02-19T01:25:09.771Z,8.00
2019-02-19T01:27:40.146Z,8.00
2019-02-19T01:30:11.496Z,8.00
2019-02-19T01:32:40.846Z,8.00
2019-02-19T01:35:11.112Z,8.00
2019-02-19T01:37:40.630Z,8.00
2019-02-19T01:40:10.268Z,8.00
2019-02-19T01:42:39.651Z,8.00
2019-02-19T01:45:09.539Z,8.00
2019-02-19T01:47:39.907Z,8.00
2019-02-19T01:50:09.777Z,8.00
2019-02-19T01:52:39.291Z,8.00
2019-02-19T01:55:09.649Z,7.90
2019-02-19T01:57:39.164Z,7.90
2019-02-19T02:00:09.509Z,8.00
2019-02-19T02:02:38.941Z,8.00
2019-02-19T02:05:09.335Z,8.00
2019-02-19T02:07:38.806Z,8.00
2019-02-19T02:10:08.385Z,8.00
2019-02-19T02:12:37.923Z,8.00
2019-02-19T02:15:10.377Z,7.90
2019-02-19T02:17:39.702Z,7.90
2019-02-19T02:20:09.271Z,7.90
2019-02-19T02:22:39.521Z,7.90
2019-02-19T02:25:09.123Z,7.90
2019-02-19T02:27:39.397Z,7.90
2019-02-19T02:30:08.860Z,7.90
2019-02-19T02:32:39.186Z,7.90
2019-02-19T02:35:11.248Z,7.90
2019-02-19T02:37:40.665Z,7.90
2019-02-19T02:40:10.158Z,7.90
2019-02-19T02:42:40.120Z,7.80
2019-02-19T02:45:09.575Z,7.80
2019-02-19T02:47:39.090Z,7.80
2019-02-19T02:50:09.729Z,7.80
2019-02-19T02:52:38.923Z,7.80
2019-02-19T02:55:08.412Z,7.70
2019-02-19T02:57:38.779Z,7.70
2019-02-19T03:00:10.339Z,7.70
2019-02-19T03:02:39.837Z,7.70
2019-02-19T03:05:09.365Z,7.70
2019-02-19T03:07:41.662Z,7.70
2019-02-19T03:10:12.016Z,7.70
2019-02-19T03:12:41.570Z,7.70
2019-02-19T03:15:12.610Z,7.70
2019-02-19T03:17:43.041Z,7.60
2019-02-19T03:20:12.478Z,7.60
2019-02-19T03:22:42.010Z,7.60
2019-02-19T03:25:11.555Z,7.60
2019-02-19T03:27:41.027Z,7.60
2019-02-19T03:30:11.258Z,7.60
2019-02-19T03:32:40.473Z,7.60
2019-02-19T03:35:09.932Z,7.60
2019-02-19T03:37:39.488Z,7.60
2019-02-19T03:40:09.000Z,7.60
2019-02-19T03:42:39.547Z,7.60
2019-02-19T03:45:10.292Z,7.60
2019-02-19T03:47:41.588Z,7.50
2019-02-19T03:50:11.126Z,7.50
2019-02-19T03:52:40.583Z,7.50
2019-02-19T03:55:10.902Z,7.50
2019-02-19T03:57:40.444Z,7.50
2019-02-19T04:00:10.046Z,7.50
2019-02-19T04:02:39.422Z,7.50
2019-02-19T04:05:09.033Z,7.50
2019-02-19T04:07:38.520Z,7.40
2019-02-19T04:10:09.237Z,7.40
2019-02-19T04:12:38.720Z,7.40
2019-02-19T04:15:07.863Z,7.40
2019-02-19T04:17:37.316Z,7.40
2019-02-19T04:20:07.522Z,7.40
2019-02-19T04:22:39.071Z,7.40
2019-02-19T04:25:08.685Z,7.40
2019-02-19T04:27:38.230Z,7.30
2019-02-19T04:30:08.629Z,7.30
2019-02-19T04:32:37.999Z,7.30
2019-02-19T04:35:13.313Z,7.30
2019-02-19T04:38:21.935Z,7.30
2019-02-19T04:41:39.640Z,7.20
2019-02-19T04:44:09.750Z,7.20
2019-02-19T04:46:39.317Z,7.20
2019-02-19T04:49:08.866Z,7.20
2019-02-19T04:51:38.335Z,7.20
2019-02-19T04:54:07.840Z,7.10
2019-02-19T04:56:37.433Z,7.10
2019-02-19T04:59:06.864Z,7.10
2019-02-19T05:01:37.195Z,7.10
2019-02-19T05:04:06.795Z,7.10
2019-02-19T05:06:36.206Z,7.10
2019-02-19T05:09:05.964Z,7.10
2019-02-19T05:11:35.254Z,7.10
2019-02-19T05:14:05.117Z,7.00
2019-02-19T05:16:40.780Z,7.00
2019-02-19T05:19:05.850Z,7.00
2019-02-19T05:21:35.281Z,7.00
2019-02-19T05:24:06.466Z,7.00
2019-02-19T05:26:35.983Z,6.90
2019-02-19T05:29:05.450Z,6.90
2019-02-19T05:31:34.950Z,6.90
2019-02-19T05:34:04.529Z,6.80
2019-02-19T05:36:34.774Z,6.80
2019-02-19T05:39:05.116Z,6.70
2019-02-19T05:41:34.676Z,6.70
2019-02-19T05:44:06.190Z,6.70
2019-02-19T05:46:37.764Z,6.70
2019-02-19T05:49:08.041Z,6.60
2019-02-19T05:51:37.554Z,6.60
2019-02-19T05:54:07.104Z,6.50
2019-02-19T05:56:37.378Z,6.50
2019-02-19T05:59:06.915Z,6.50
2019-02-19T06:01:36.495Z,6.40
2019-02-19T06:04:05.921Z,6.40
2019-02-19T06:06:35.424Z,6.30
2019-02-19T06:09:06.312Z,6.30
2019-02-19T06:11:35.727Z,6.30
2019-02-19T06:14:06.419Z,6.20
2019-02-19T06:16:35.966Z,6.20
2019-02-19T06:19:06.231Z,6.20
2019-02-19T06:21:38.663Z,6.20
2019-02-19T06:24:08.973Z,6.20
2019-02-19T06:26:38.442Z,6.10
2019-02-19T06:29:09.583Z,6.10
2019-02-19T06:31:39.147Z,6.10
2019-02-19T06:34:08.583Z,6.10
2019-02-19T06:36:38.101Z,6.10
2019-02-19T06:39:07.637Z,6.10
2019-02-19T06:41:37.959Z,6.10
2019-02-19T06:44:07.469Z,6.00
2019-02-19T06:46:36.975Z,6.00
2019-02-19T06:49:06.449Z,6.00
2019-02-19T06:51:36.773Z,6.00
2019-02-19T06:54:06.334Z,6.00
2019-02-19T06:56:35.786Z,6.00
2019-02-19T06:59:05.288Z,5.90
2019-02-19T07:01:54.372Z,5.90
2019-02-19T07:04:29.249Z,5.90
2019-02-19T07:06:59.680Z,5.90
2019-02-19T07:09:29.987Z,5.90
2019-02-19T07:12:00.297Z,5.90
2019-02-19T07:14:29.797Z,5.90
2019-02-19T07:16:59.338Z,5.90
2019-02-19T07:19:28.867Z,5.90
2019-02-19T07:21:58.397Z,5.90
2019-02-19T07:24:28.853Z,6.00
2019-02-19T07:27:05.668Z,6.00
2019-02-19T07:29:35.080Z,6.00
2019-02-19T07:32:14.424Z,6.00
2019-02-19T07:34:43.954Z,6.00
2019-02-19T07:37:13.378Z,6.00
2019-02-19T07:39:43.695Z,6.10
2019-02-19T07:42:17.364Z,6.10
2019-02-19T07:44:46.784Z,6.10
2019-02-19T07:47:24.390Z,6.20
2019-02-19T07:49:49.245Z,6.20
2019-02-19T07:52:18.791Z,6.20
2019-02-19T07:54:48.194Z,6.20
2019-02-19T07:57:18.700Z,6.30
2019-02-19T07:59:48.047Z,6.30
2019-02-19T08:02:19.742Z,6.30
2019-02-19T08:04:50.856Z,6.30
2019-02-19T08:07:26.965Z,6.40
2019-02-19T08:09:56.801Z,6.40
2019-02-19T08:12:31.056Z,6.40
2019-02-19T08:15:12.811Z,6.50
2019-02-19T08:17:50.544Z,6.50
2019-02-19T08:20:22.263Z,6.60
2019-02-19T08:22:51.785Z,6.70
2019-02-19T08:25:26.258Z,6.80
2019-02-19T08:28:15.617Z,6.90
2019-02-19T08:30:45.710Z,7.00
2019-02-19T08:33:16.313Z,7.10
2019-02-19T08:35:46.874Z,7.10
2019-02-19T08:38:16.504Z,7.20
2019-02-19T08:40:46.856Z,7.30
2019-02-19T08:43:16.343Z,7.30
2019-02-19T08:45:46.667Z,7.40
2019-02-19T08:48:16.994Z,7.50
2019-02-19T08:50:46.461Z,7.50
2019-02-19T08:53:15.958Z,7.60
2019-02-19T08:55:46.391Z,7.60
2019-02-19T08:58:19.903Z,7.70
2019-02-19T09:00:57.601Z,7.70
2019-02-19T09:03:29.179Z,7.70
2019-02-19T09:05:58.665Z,7.70
2019-02-19T09:08:29.079Z,7.80
2019-02-19T09:11:00.603Z,7.80
2019-02-19T09:13:37.439Z,7.80
2019-02-19T09:16:10.039Z,7.90
2019-02-19T09:18:55.641Z,7.90
2019-02-19T09:21:24.760Z,8.00
2019-02-19T09:23:55.969Z,8.10
2019-02-19T09:26:33.569Z,8.10
2019-02-19T09:29:07.185Z,8.20
2019-02-19T09:31:36.745Z,8.30
2019-02-19T09:34:08.299Z,8.40
2019-02-19T09:36:38.584Z,8.40
2019-02-19T09:39:08.166Z,8.50
2019-02-19T09:41:39.756Z,8.60
2019-02-19T09:44:14.906Z,8.70
2019-02-19T09:46:44.470Z,8.80
2019-02-19T09:49:19.692Z,8.90
2019-02-19T09:51:52.464Z,9.00
2019-02-19T09:54:22.874Z,9.10
2019-02-19T09:56:53.208Z,9.20
2019-02-19T09:59:22.758Z,9.10
2019-02-19T10:01:52.101Z,9.20
2019-02-19T10:04:22.522Z,9.10
2019-02-19T10:06:55.314Z,9.10
2019-02-19T10:10:20.450Z,9.00
2019-02-19T10:13:26.628Z,8.90
2019-02-19T10:15:55.900Z,8.90
2019-02-19T10:18:26.244Z,8.90
2019-02-19T10:20:55.758Z,8.90
2019-02-19T10:23:25.241Z,8.90
2019-02-19T10:25:54.783Z,9.00
2019-02-19T10:28:24.328Z,9.10
2019-02-19T10:30:53.933Z,9.20
2019-02-19T10:33:23.465Z,9.30
2019-02-19T10:35:52.942Z,9.30
2019-02-19T10:38:22.317Z,9.50
2019-02-19T10:40:51.777Z,9.60
2019-02-19T10:43:21.437Z,9.60
2019-02-19T10:45:51.135Z,9.70
2019-02-19T10:48:21.547Z,9.80
2019-02-19T10:50:51.086Z,9.90
2019-02-19T10:53:20.517Z,10.00
2019-02-19T10:55:50.115Z,10.00
2019-02-19T10:58:22.857Z,10.20
2019-02-19T11:00:50.860Z,10.20
2019-02-19T11:03:21.459Z,10.20
2019-02-19T11:05:51.026Z,10.30
2019-02-19T11:08:22.587Z,10.10
2019-02-19T11:10:52.149Z,10.00
2019-02-19T11:13:21.603Z,9.90
2019-02-19T11:15:51.910Z,9.90
2019-02-19T11:18:28.071Z,9.90
2019-02-19T11:20:53.793Z,10.00
2019-02-19T11:23:25.882Z,10.10
2019-02-19T11:25:56.444Z,10.20
2019-02-19T11:28:26.022Z,10.10
2019-02-19T11:30:56.312Z,10.20
2019-02-19T11:33:25.822Z,10.20
2019-02-19T11:35:56.248Z,10.30
2019-02-19T11:38:27.657Z,10.40
2019-02-19T11:40:57.174Z,10.50
2019-02-19T11:43:26.732Z,10.60
2019-02-19T11:45:56.186Z,10.60
2019-02-19T11:48:25.710Z,10.50
2019-02-19T11:50:55.224Z,10.50
2019-02-19T11:53:27.530Z,10.40
2019-02-19T11:55:57.048Z,10.40
2019-02-19T11:58:27.469Z,10.40
2019-02-19T12:00:57.882Z,10.30
2019-02-19T12:03:27.272Z,10.20
2019-02-19T12:05:59.354Z,10.20
2019-02-19T12:08:28.717Z,10.10
2019-02-19T12:10:58.282Z,10.30
2019-02-19T12:13:29.082Z,10.40
2019-02-19T12:15:58.430Z,10.60
2019-02-19T12:18:27.999Z,10.70
2019-02-19T12:20:57.534Z,10.70
2019-02-19T12:23:27.071Z,10.80
2019-02-19T12:25:56.379Z,10.90
2019-02-19T12:28:28.283Z,10.90
2019-02-19T12:30:57.585Z,10.80
2019-02-19T12:33:27.130Z,10.70
2019-02-19T12:35:56.609Z,10.70
2019-02-19T12:38:27.387Z,10.70
2019-02-19T12:40:56.819Z,10.70
2019-02-19T12:43:26.495Z,10.70
2019-02-19T12:45:58.622Z,10.70
2019-02-19T12:48:28.140Z,10.60
2019-02-19T12:51:01.837Z,10.60
2019-02-19T12:53:31.263Z,10.60
2019-02-19T12:56:02.814Z,10.50
2019-02-19T12:58:32.365Z,10.50
2019-02-19T13:01:01.935Z,10.60
2019-02-19T13:03:31.345Z,10.70
2019-02-19T13:06:01.709Z,10.70
2019-02-19T13:08:32.050Z,10.70
2019-02-19T13:11:03.876Z,10.80
2019-02-19T13:13:34.312Z,10.90
2019-02-19T13:16:03.979Z,10.80
2019-02-19T13:18:34.566Z,10.80
2019-02-19T13:21:04.074Z,10.70
2019-02-19T13:23:34.354Z,10.70
2019-02-19T13:26:08.287Z,10.60
2019-02-19T13:28:39.948Z,10.50
2019-02-19T13:31:09.428Z,10.50
2019-02-19T13:33:39.058Z,10.50
2019-02-19T13:36:09.989Z,10.60
2019-02-19T13:38:39.282Z,10.50
2019-02-19T13:41:08.670Z,10.50
2019-02-19T13:43:39.132Z,10.40
2019-02-19T13:46:09.328Z,10.40
2019-02-19T13:48:40.868Z,10.50
2019-02-19T13:51:10.445Z,10.70
2019-02-19T13:54:04.760Z,10.80
2019-02-19T13:56:35.332Z,10.80
2019-02-19T13:59:06.778Z,10.60
2019-02-19T14:01:38.862Z,10.50
2019-02-19T14:04:09.096Z,10.50
2019-02-19T14:06:40.726Z,10.40
2019-02-19T14:09:10.184Z,10.40
2019-02-19T14:11:39.652Z,10.50
2019-02-19T14:14:45.243Z,10.60
2019-02-19T14:17:19.710Z,10.70
2019-02-19T14:19:54.994Z,10.80
2019-02-19T14:22:43.049Z,10.80
2019-02-19T14:25:34.631Z,10.80
2019-02-19T14:28:21.924Z,10.80
2019-02-19T14:31:09.038Z,10.90
2019-02-19T14:33:57.649Z,10.90
2019-02-19T14:36:52.031Z,10.90
2019-02-19T14:39:39.409Z,10.90
2019-02-19T14:42:33.588Z,11.00
2019-02-19T14:45:20.632Z,11.10
2019-02-19T14:48:05.411Z,11.10
2019-02-19T14:50:44.509Z,11.20
2019-02-19T14:53:33.345Z,11.10
2019-02-19T14:56:36.996Z,11.00
2019-02-19T14:59:28.580Z,11.10
2019-02-19T15:02:16.902Z,11.10
2019-02-19T15:05:03.800Z,11.20
2019-02-19T15:07:39.425Z,11.20
2019-02-19T15:10:32.818Z,11.20
2019-02-19T15:13:20.363Z,11.20
2019-02-19T15:16:24.205Z,11.20
2019-02-19T15:19:11.395Z,11.00
2019-02-19T15:22:00.679Z,11.00
2019-02-19T15:24:49.383Z,11.00
2019-02-19T15:27:36.356Z,10.90
2019-02-19T15:30:22.579Z,10.80
2019-02-19T15:33:14.929Z,10.80
2019-02-19T15:36:28.194Z,10.70
2019-02-19T15:39:32.069Z,10.70
2019-02-19T15:42:38.837Z,10.60
2019-02-19T15:45:45.697Z,10.40
2019-02-19T15:48:30.411Z,10.40
2019-02-19T15:51:11.816Z,10.30
2019-02-19T15:53:57.719Z,10.20
2019-02-19T15:56:46.053Z,10.20
2019-02-19T15:59:26.047Z,10.10
2019-02-19T16:02:20.785Z,10.10
2019-02-19T16:05:12.223Z,10.00
2019-02-19T16:07:48.696Z,10.00
2019-02-19T16:10:28.783Z,10.00
2019-02-19T16:13:26.356Z,10.00
2019-02-19T16:16:22.865Z,9.90
2019-02-19T16:19:07.484Z,9.90
2019-02-19T16:22:04.381Z,9.90
2019-02-19T16:24:51.496Z,9.90
2019-02-19T16:27:44.389Z,9.80
2019-02-19T16:30:33.026Z,9.70
2019-02-19T16:33:15.229Z,9.70
2019-02-19T16:36:01.614Z,9.60
2019-02-19T16:38:59.176Z,9.50
2019-02-19T16:41:48.707Z,9.50
2019-02-19T16:44:35.715Z,9.40
2019-02-19T16:47:17.539Z,9.40
2019-02-19T16:50:07.308Z,9.30
2019-02-19T16:52:53.438Z,9.20
2019-02-19T16:55:31.623Z,9.10
2019-02-19T16:58:15.385Z,9.10
2019-02-19T17:01:11.638Z,9.00
2019-02-19T17:04:09.402Z,8.90
2019-02-19T17:06:51.059Z,8.90
2019-02-19T17:09:31.253Z,8.80
2019-02-19T17:12:15.936Z,8.80
2019-02-19T17:15:01.294Z,8.70
2019-02-19T17:18:04.886Z,8.60
2019-02-19T17:20:41.246Z,8.60
2019-02-19T17:23:22.964Z,8.60
2019-02-19T17:26:17.566Z,8.60
2019-02-19T17:29:25.099Z,8.50
2019-02-19T17:32:02.397Z,8.50
2019-02-19T17:34:44.319Z,8.50
2019-02-19T17:37:35.555Z,8.40
2019-02-19T17:40:12.345Z,8.40
2019-02-19T17:42:46.766Z,8.40
2019-02-19T17:45:44.488Z,8.40
2019-02-19T17:48:37.520Z,8.30
2019-02-19T17:51:24.542Z,8.30
2019-02-19T17:54:22.261Z,8.30
2019-02-19T17:57:06.487Z,8.30
2019-02-19T17:59:50.137Z,8.30
2019-02-19T18:02:46.098Z,8.20
2019-02-19T18:05:32.760Z,8.20
2019-02-19T18:08:19.718Z,8.20
2019-02-19T18:10:59.222Z,8.10
2019-02-19T18:13:39.295Z,8.10
2019-02-19T18:16:25.092Z,8.00
2019-02-19T18:19:01.625Z,8.00
2019-02-19T18:21:31.888Z,8.00
2019-02-19T18:24:06.757Z,7.90
2019-02-19T18:26:38.464Z,7.90
2019-02-19T18:30:13.001Z,7.80
2019-02-19T18:33:09.583Z,7.80
2019-02-19T18:35:46.724Z,7.70
2019-02-19T18:38:22.600Z,7.70
2019-02-19T18:40:53.879Z,7.70
2019-02-19T18:43:25.500Z,7.70
2019-02-19T18:46:02.392Z,7.70
2019-02-19T18:48:31.844Z,7.60
2019-02-19T18:51:09.415Z,7.60
2019-02-19T18:53:46.680Z,7.60
2019-02-19T18:56:26.130Z,7.50
2019-02-19T19:02:49.439Z,7.50
2019-02-19T19:05:45.186Z,7.40
2019-02-19T19:08:27.764Z,7.30
2019-02-19T19:10:57.152Z,7.30
2019-02-19T19:13:42.004Z,7.30
2019-02-19T19:16:19.230Z,7.20
2019-02-19T19:19:13.523Z,7.20
2019-02-19T19:21:43.394Z,7.10
2019-02-19T19:24:14.125Z,7.10
2019-02-19T19:26:45.884Z,7.10
2019-02-19T19:29:15.767Z,7.00
2019-02-19T19:31:57.209Z,7.00
2019-02-19T19:35:10.569Z,7.00
2019-02-19T19:46:08.226Z,7.00
2019-02-19T19:49:20.804Z,7.00
2019-02-19T19:52:20.971Z,7.00
2019-02-19T19:54:58.943Z,7.00
2019-02-19T19:57:31.862Z,7.00
2019-02-19T20:00:11.588Z,7.00
2019-02-19T20:02:47.923Z,7.00
2019-02-19T20:05:28.568Z,7.00
2019-02-19T20:08:04.775Z,7.00
2019-02-19T20:10:34.334Z,6.90
2019-02-19T20:13:04.146Z,6.90
2019-02-19T20:15:34.588Z,6.90
2019-02-19T20:18:07.650Z,6.90
2019-02-19T20:20:38.112Z,6.90
2019-02-19T20:23:07.586Z,6.90
2019-02-19T20:25:37.035Z,6.90
2019-02-19T20:28:07.428Z,6.90
2019-02-19T20:30:36.925Z,6.80
2019-02-19T20:33:06.450Z,6.80
2019-02-19T20:35:35.818Z,6.80
2019-02-19T20:38:05.443Z,6.80
2019-02-19T20:40:34.909Z,6.70
2019-02-19T20:43:05.349Z,6.70
2019-02-19T20:45:34.786Z,6.70
2019-02-19T20:48:04.211Z,6.70
2019-02-19T20:50:34.656Z,6.60
2019-02-19T20:53:06.142Z,6.60
2019-02-19T20:55:37.428Z,6.60
2019-02-19T20:58:07.140Z,6.60
2019-02-19T21:00:36.678Z,6.60
2019-02-19T21:03:11.111Z,6.50
2019-02-19T21:05:41.583Z,6.50
2019-02-19T21:08:19.095Z,6.50
2019-02-19T21:11:24.235Z,6.50
2019-02-19T21:13:53.873Z,6.50
2019-02-19T21:16:24.151Z,6.40
2019-02-19T21:18:55.708Z,6.40
2019-02-19T21:21:25.116Z,6.40
2019-02-19T21:23:55.491Z,6.40
2019-02-19T21:26:29.139Z,6.30
2019-02-19T21:29:00.690Z,6.30
2019-02-19T21:31:30.199Z,6.30
2019-02-19T21:34:00.604Z,6.20
2019-02-19T21:36:29.801Z,6.20
2019-02-19T21:39:01.266Z,6.20
2019-02-19T21:41:30.654Z,6.20
2019-02-19T21:44:02.998Z,6.20
2019-02-19T21:46:34.722Z,6.20
2019-02-19T21:49:06.006Z,6.10
2019-02-19T21:51:35.642Z,6.10
2019-02-19T21:54:05.629Z,6.10
2019-02-19T21:56:36.399Z,6.00
2019-02-19T21:59:07.776Z,5.90
2019-02-19T22:01:37.354Z,5.90
2019-02-19T22:04:06.956Z,5.90
2019-02-19T22:06:38.449Z,5.90
2019-02-19T22:09:07.893Z,5.90
2019-02-19T22:11:37.451Z,5.90
2019-02-19T22:14:08.662Z,5.90
2019-02-19T22:16:38.208Z,5.90
2019-02-19T22:19:08.780Z,5.90
2019-02-19T22:21:52.065Z,5.80
2019-02-19T22:24:35.148Z,5.80
2019-02-19T22:27:07.457Z,5.80
2019-02-19T22:29:37.235Z,5.80
2019-02-19T22:32:09.402Z,5.80
2019-02-19T22:34:39.144Z,5.80
2019-02-19T22:37:15.474Z,5.80
2019-02-19T22:39:47.444Z,5.90
2019-02-19T22:42:22.838Z,5.80
2019-02-19T22:44:54.932Z,5.80
2019-02-19T22:47:24.615Z,5.80
2019-02-19T22:49:59.902Z,5.70
2019-02-19T22:52:29.346Z,5.70
2019-02-19T22:55:23.942Z,5.70
2019-02-19T22:57:55.466Z,5.70
2019-02-19T23:00:45.449Z,5.60
2019-02-19T23:03:16.065Z,5.60
2019-02-19T23:05:47.722Z,5.60
2019-02-19T23:08:19.259Z,5.60
2019-02-19T23:10:49.574Z,5.60
2019-02-19T23:13:21.130Z,5.60
2019-02-19T23:15:50.573Z,5.60
2019-02-19T23:18:20.159Z,5.60
2019-02-19T23:20:49.668Z,5.50
2019-02-19T23:23:25.257Z,5.50
2019-02-19T23:25:54.775Z,5.50
2019-02-19T23:28:24.239Z,5.50
2019-02-19T23:30:53.800Z,5.50
2019-02-19T23:33:25.751Z,5.50
2019-02-19T23:36:16.837Z,5.50
2019-02-19T23:38:48.565Z,5.50
2019-02-19T23:41:19.824Z,5.40
2019-02-19T23:43:49.395Z,5.40
2019-02-19T23:46:19.952Z,5.40
2019-02-19T23:48:49.513Z,5.40
2019-02-19T23:51:20.181Z,5.40
2019-02-19T23:53:49.964Z,5.40
2019-02-19T23:56:21.598Z,5.30
2019-02-19T23:58:51.290Z,5.30
